createdAt,value
2016-04-20T08:26:49.641Z,5748
2016-04-20T08:27:51.378Z,5684
2016-04-20T08:28:51.818Z,5640
2016-04-20T08:29:51.821Z,5620
2016-04-20T08:30:51.839Z,5544
2016-04-20T08:31:51.841Z,5512
2016-04-20T08:32:51.844Z,5452
2016-04-20T08:33:51.863Z,5412
2016-04-20T08:34:51.865Z,5384
2016-04-20T08:35:51.868Z,5356
2016-04-20T08:36:51.887Z,5304
2016-04-20T08:37:51.889Z,5316
2016-04-20T08:38:51.892Z,5308
2016-04-20T08:39:51.910Z,5276
2016-04-20T08:40:51.929Z,5168
2016-04-20T08:41:51.915Z,5160
2016-04-20T08:42:51.934Z,5156
2016-04-20T08:43:51.952Z,5124
2016-04-20T08:44:51.940Z,5104
2016-04-20T08:45:51.942Z,5064
2016-04-20T08:46:51.976Z,5024
2016-04-20T08:47:51.948Z,5024
2016-04-20T08:48:51.966Z,4944
2016-04-20T08:49:52.156Z,4888
2016-04-20T08:50:51.987Z,4880
2016-04-20T08:51:52.005Z,4896
2016-04-20T08:52:51.992Z,4872
2016-04-20T08:53:51.995Z,4856
2016-04-20T08:54:52.013Z,4852
2016-04-20T08:55:52.031Z,4872
2016-04-20T08:56:52.033Z,4876
2016-04-20T08:57:52.037Z,4820
2016-04-20T08:58:52.039Z,4772
2016-04-20T08:59:52.027Z,4744
2016-04-20T09:00:52.045Z,4724
2016-04-20T09:01:52.063Z,4676
2016-04-20T09:02:52.066Z,4632
2016-04-20T09:03:52.068Z,4588
2016-04-20T09:04:52.415Z,4540
2016-04-20T09:05:52.089Z,4496
2016-04-20T09:06:52.093Z,4472
2016-04-20T09:07:52.095Z,4436
2016-04-20T09:08:52.113Z,4392
2016-04-20T09:09:52.101Z,4352
2016-04-20T09:10:52.119Z,4256
2016-04-20T09:11:52.121Z,4192
2016-04-20T09:12:52.109Z,4128
2016-04-20T09:13:52.143Z,4064
2016-04-20T09:14:52.129Z,4024
2016-04-20T09:15:52.163Z,3992
2016-04-20T09:16:52.134Z,3944
2016-04-20T09:17:52.153Z,3900
2016-04-20T09:18:52.156Z,3860
2016-04-20T09:19:52.331Z,3880
2016-04-20T09:20:52.176Z,3868
2016-04-20T09:21:52.201Z,3828
2016-04-20T09:22:52.166Z,3808
2016-04-20T09:23:52.184Z,3780
2016-04-20T09:24:52.186Z,3772
2016-04-20T09:25:52.205Z,3756
2016-04-20T09:26:52.191Z,3724
2016-04-20T09:27:52.210Z,3720
2016-04-20T09:28:56.369Z,3700
2016-04-20T09:29:52.216Z,3704
2016-04-20T09:30:52.218Z,3692
2016-04-20T09:31:52.221Z,3676
2016-04-20T09:32:52.239Z,3648
2016-04-20T09:33:52.257Z,3632
2016-04-20T09:34:52.370Z,3596
2016-04-20T09:35:52.262Z,3564
2016-04-20T09:36:52.250Z,3544
2016-04-20T09:37:52.252Z,3544
2016-04-20T09:38:52.256Z,3520
2016-04-20T09:39:52.383Z,3492
2016-04-20T09:40:52.276Z,3504
2016-04-20T09:41:52.279Z,3532
2016-04-20T09:42:52.281Z,3520
2016-04-20T09:43:52.284Z,3536
2016-04-20T09:44:52.286Z,3524
2016-04-20T09:45:52.289Z,3520
2016-04-20T09:46:52.339Z,3512
2016-04-20T09:47:52.295Z,3512
2016-04-20T09:48:52.298Z,3504
2016-04-20T09:49:52.425Z,3500
2016-04-20T09:50:52.225Z,3480
2016-04-20T09:51:52.321Z,3452
2016-04-20T09:52:52.340Z,3428
2016-04-20T09:53:52.327Z,3404
2016-04-20T09:54:52.330Z,3368
2016-04-20T09:55:52.332Z,3380
2016-04-20T09:56:52.335Z,3408
2016-04-20T09:57:52.338Z,3368
2016-04-20T09:58:52.356Z,3356
2016-04-20T09:59:52.359Z,3348
2016-04-20T10:00:52.361Z,3352
2016-04-20T10:01:52.364Z,3368
2016-04-20T10:02:52.367Z,3388
2016-04-20T10:03:52.369Z,3376
2016-04-20T10:04:52.543Z,3372
2016-04-20T10:05:52.375Z,3376
2016-04-20T10:06:52.408Z,3360
2016-04-20T10:07:52.380Z,3348
2016-04-20T10:08:52.398Z,3360
2016-04-20T10:09:52.401Z,3396
2016-04-20T10:10:52.389Z,3348
2016-04-20T10:11:52.391Z,3304
2016-04-20T10:12:52.409Z,3268
2016-04-20T10:13:52.412Z,3248
2016-04-20T10:14:52.400Z,3244
2016-04-20T10:15:52.433Z,3216
2016-04-20T10:16:52.530Z,3216
2016-04-20T10:17:52.454Z,3204
2016-04-20T10:18:52.425Z,3192
2016-04-20T10:19:52.444Z,3176
2016-04-20T10:20:52.431Z,3176
2016-04-20T10:21:52.449Z,3172
2016-04-20T10:22:52.452Z,3160
2016-04-20T10:23:52.455Z,3156
2016-04-20T10:24:52.441Z,3156
2016-04-20T10:25:52.444Z,3172
2016-04-20T10:26:52.462Z,3160
2016-04-20T10:27:52.449Z,3148
2016-04-20T10:28:52.452Z,3120
2016-04-20T10:29:52.471Z,3100
2016-04-20T10:30:52.473Z,3088
2016-04-20T10:31:52.632Z,3084
2016-04-20T10:32:52.479Z,3064
2016-04-20T10:33:52.482Z,3052
2016-04-20T10:34:52.516Z,3040
2016-04-20T10:35:52.487Z,3044
2016-04-20T10:36:52.333Z,3056
2016-04-20T10:37:52.679Z,3036
2016-04-20T10:38:52.542Z,3024
2016-04-20T10:39:52.497Z,3032
2016-04-20T10:40:52.532Z,3048
2016-04-20T10:41:52.550Z,3040
2016-04-20T10:42:52.521Z,3008
2016-04-20T10:43:52.523Z,2996
2016-04-20T10:44:52.526Z,2992
2016-04-20T10:45:52.404Z,2972
2016-04-20T10:46:52.376Z,2968
2016-04-20T10:47:52.534Z,2944
2016-04-20T10:48:52.537Z,2912
2016-04-20T10:49:52.399Z,2876
2016-04-20T10:50:52.542Z,2876
2016-04-20T10:51:52.545Z,2896
2016-04-20T10:52:52.547Z,2888
2016-04-20T10:53:52.566Z,2884
2016-04-20T10:54:52.569Z,2892
2016-04-20T10:55:52.556Z,2916
2016-04-20T10:56:52.558Z,2900
2016-04-20T10:57:52.577Z,2888
2016-04-20T10:58:52.579Z,2884
2016-04-20T10:59:52.566Z,2868
2016-04-20T11:00:52.585Z,2856
2016-04-20T11:01:52.572Z,2848
2016-04-20T11:02:52.575Z,2852
2016-04-20T11:03:52.609Z,2864
2016-04-20T11:04:52.580Z,2848
2016-04-20T11:05:52.598Z,2824
2016-04-20T11:06:52.601Z,2820
2016-04-20T11:07:52.620Z,2812
2016-04-20T11:08:52.607Z,2812
2016-04-20T11:09:52.609Z,2820
2016-04-20T11:10:52.612Z,2804
2016-04-20T11:11:52.615Z,2776
2016-04-20T11:12:52.618Z,2768
2016-04-20T11:13:52.620Z,2784
2016-04-20T11:14:52.623Z,2776
2016-04-20T11:15:52.625Z,2772
2016-04-20T11:16:52.644Z,2760
2016-04-20T11:17:52.615Z,2748
2016-04-20T11:18:52.634Z,2736
2016-04-20T11:19:52.637Z,2720
2016-04-20T11:20:52.655Z,2692
2016-04-20T11:21:52.642Z,2684
2016-04-20T11:22:52.644Z,2676
2016-04-20T11:23:52.663Z,2680
2016-04-20T11:24:52.650Z,2660
2016-04-20T11:25:52.652Z,2652
2016-04-20T11:26:52.686Z,2656
2016-04-20T11:27:52.655Z,2656
2016-04-20T11:28:52.657Z,2652
2016-04-20T11:29:52.676Z,2628
2016-04-20T11:30:52.663Z,2620
2016-04-20T11:31:52.666Z,2608
2016-04-20T11:32:52.669Z,2592
2016-04-20T11:33:52.672Z,2572
2016-04-20T11:34:52.674Z,2564
2016-04-20T11:35:52.677Z,2552
2016-04-20T11:36:52.695Z,2560
2016-04-20T11:37:52.698Z,2544
2016-04-20T11:38:52.748Z,2544
2016-04-20T11:39:52.704Z,2532
2016-04-20T11:40:52.706Z,2516
2016-04-20T11:41:52.709Z,2512
2016-04-20T11:42:52.695Z,2488
2016-04-20T11:43:52.698Z,2480
2016-04-20T11:44:52.716Z,2476
2016-04-20T11:45:52.704Z,2472
2016-04-20T11:46:52.722Z,2456
2016-04-20T11:47:52.724Z,2448
2016-04-20T11:48:52.712Z,2436
2016-04-20T11:49:52.730Z,2428
2016-04-20T11:50:52.733Z,2416
2016-04-20T11:51:52.720Z,2408
2016-04-20T11:52:52.722Z,2396
2016-04-20T11:53:52.725Z,2380
2016-04-20T11:54:52.728Z,2372
2016-04-20T11:55:52.746Z,2372
2016-04-20T11:56:52.749Z,2364
2016-04-20T11:57:52.766Z,2352
2016-04-20T11:58:52.769Z,2340
2016-04-20T11:59:52.758Z,2340
2016-04-20T12:00:52.760Z,2340
2016-04-20T12:01:52.747Z,2336
2016-04-20T12:02:52.765Z,2344
2016-04-20T12:03:53.392Z,2328
2016-04-20T12:04:52.754Z,2312
2016-04-20T12:05:52.774Z,2296
2016-04-20T12:06:52.791Z,2296
2016-04-20T12:07:52.763Z,2284
2016-04-20T12:08:52.765Z,2284
2016-04-20T12:09:52.627Z,2276
2016-04-20T12:10:52.786Z,2268
2016-04-20T12:11:52.789Z,2260
2016-04-20T12:12:52.793Z,2256
2016-04-20T12:13:52.795Z,2248
2016-04-20T12:14:52.798Z,2236
2016-04-20T12:15:52.815Z,2228
2016-04-20T12:16:52.786Z,2216
2016-04-20T12:17:52.790Z,2204
2016-04-20T12:18:52.809Z,2200
2016-04-20T12:19:52.795Z,2196
2016-04-20T12:20:52.814Z,2200
2016-04-20T12:21:52.816Z,2188
2016-04-20T12:22:52.819Z,2180
2016-04-20T12:23:52.822Z,2168
2016-04-20T12:24:52.855Z,2156
2016-04-20T12:25:52.827Z,2156
2016-04-20T12:26:52.844Z,2148
2016-04-20T12:27:52.847Z,2136
2016-04-20T12:28:52.866Z,2136
2016-04-20T12:29:52.838Z,2128
2016-04-20T12:30:52.840Z,2120
2016-04-20T12:31:52.844Z,2112
2016-04-20T12:32:52.845Z,2104
2016-04-20T12:33:52.848Z,2096
2016-04-20T12:34:52.851Z,2100
2016-04-20T12:35:52.932Z,2096
2016-04-20T12:36:52.857Z,2092
2016-04-20T12:37:52.860Z,2080
2016-04-20T12:38:52.862Z,2072
2016-04-20T12:39:52.865Z,2076
2016-04-20T12:40:52.868Z,2072
2016-04-20T12:41:52.871Z,2064
2016-04-20T12:42:52.873Z,2048
2016-04-20T12:43:52.859Z,2036
2016-04-20T12:44:52.878Z,2032
2016-04-20T12:45:52.881Z,2036
2016-04-20T12:46:52.884Z,2032
2016-04-20T12:47:52.902Z,2020
2016-04-20T12:48:52.889Z,2012
2016-04-20T12:49:52.892Z,2004
2016-04-20T12:50:52.925Z,1992
2016-04-20T12:51:52.912Z,1984
2016-04-20T12:52:52.900Z,1984
2016-04-20T12:53:52.949Z,1976
2016-04-20T12:54:52.936Z,1968
2016-04-20T12:55:52.908Z,1956
2016-04-20T12:56:52.911Z,1952
2016-04-20T12:57:52.928Z,1948
2016-04-20T12:58:52.931Z,1944
2016-04-20T12:59:52.919Z,1940
2016-04-20T13:00:52.921Z,1940
2016-04-20T13:01:52.938Z,1940
2016-04-20T13:02:52.926Z,1932
2016-04-20T13:03:52.945Z,1924
2016-04-20T13:04:52.932Z,1920
2016-04-20T13:05:52.950Z,1912
2016-04-20T13:06:52.937Z,1904
2016-04-20T13:07:52.924Z,1900
2016-04-20T13:08:52.943Z,1896
2016-04-20T13:09:52.946Z,1888
2016-04-20T13:10:52.948Z,1884
2016-04-20T13:11:52.950Z,1876
2016-04-20T13:12:52.968Z,1872
2016-04-20T13:13:53.299Z,1860
2016-04-20T13:14:52.959Z,1856
2016-04-20T13:15:52.977Z,1852
2016-04-20T13:16:52.964Z,1852
2016-04-20T13:17:52.810Z,1852
2016-04-20T13:18:52.985Z,1852
2016-04-20T13:19:52.972Z,1856
2016-04-20T13:20:53.287Z,1852
2016-04-20T13:21:52.993Z,1848
2016-04-20T13:22:52.964Z,1848
2016-04-20T13:23:52.967Z,1844
2016-04-20T13:24:53.000Z,1836
2016-04-20T13:25:52.988Z,1832
2016-04-20T13:26:52.991Z,1816
2016-04-20T13:27:52.994Z,1808
2016-04-20T13:28:52.997Z,1804
2016-04-20T13:29:52.999Z,1796
2016-04-20T13:30:53.002Z,1792
2016-04-20T13:31:52.988Z,1784
2016-04-20T13:32:53.008Z,1784
2016-04-20T13:33:53.010Z,1780
2016-04-20T13:34:53.013Z,1768
2016-04-20T13:35:52.405Z,1768
2016-04-20T13:36:53.033Z,1756
2016-04-20T13:37:53.020Z,1752
2016-04-20T13:38:53.039Z,1752
2016-04-20T13:39:53.026Z,1752
2016-04-20T13:40:53.029Z,1748
2016-04-20T13:41:52.875Z,1744
2016-04-20T13:42:53.034Z,1736
2016-04-20T13:43:53.036Z,1736
2016-04-20T13:44:53.040Z,1676
2016-04-20T13:45:53.042Z,1732
2016-04-20T13:46:53.045Z,1728
2016-04-20T13:47:53.047Z,1720
2016-04-20T13:48:53.051Z,1724
2016-04-20T13:49:53.053Z,1712
2016-04-20T13:50:53.134Z,1708
2016-04-20T13:51:53.058Z,1708
2016-04-20T13:52:53.062Z,1708
2016-04-20T13:53:53.048Z,1708
2016-04-20T13:54:52.894Z,1704
2016-04-20T13:55:53.053Z,1696
2016-04-20T13:56:53.072Z,1692
2016-04-20T13:57:53.074Z,1688
2016-04-20T13:58:53.125Z,1688
2016-04-20T13:59:53.064Z,1688
2016-04-20T14:00:53.083Z,1684
2016-04-20T14:01:53.070Z,1680
2016-04-20T14:02:53.072Z,1680
2016-04-20T14:03:53.106Z,1680
2016-04-20T14:04:53.077Z,1672
2016-04-20T14:05:53.096Z,1668
2016-04-20T14:06:53.098Z,1672
2016-04-20T14:07:53.102Z,1668
2016-04-20T14:08:53.088Z,1672
2016-04-20T14:09:53.091Z,1668
2016-04-20T14:10:53.094Z,1660
2016-04-20T14:11:53.096Z,1656
2016-04-20T14:12:53.099Z,1652
2016-04-20T14:13:53.102Z,1648
2016-04-20T14:14:53.105Z,1644
2016-04-20T14:15:53.107Z,1640
2016-04-20T14:16:53.125Z,1636
2016-04-20T14:17:53.128Z,1636
2016-04-20T14:18:53.115Z,1636
2016-04-20T14:19:53.712Z,1632
2016-04-20T14:20:53.152Z,1632
2016-04-20T14:21:53.123Z,1628
2016-04-20T14:22:53.127Z,1628
2016-04-20T14:23:53.145Z,1620
2016-04-20T14:24:53.148Z,1612
2016-04-20T14:25:53.135Z,1612
2016-04-20T14:26:53.138Z,1608
2016-04-20T14:27:53.140Z,1604
2016-04-20T14:28:53.143Z,1600
2016-04-20T14:29:53.146Z,1600
2016-04-20T14:30:53.165Z,1596
2016-04-20T14:31:53.167Z,1592
2016-04-20T14:32:53.137Z,1584
2016-04-20T14:33:53.156Z,1588
2016-04-20T14:34:53.175Z,1588
2016-04-20T14:35:53.146Z,1580
2016-04-20T14:36:53.164Z,1580
2016-04-20T14:37:53.167Z,1576
2016-04-20T14:38:53.154Z,1576
2016-04-20T14:39:53.157Z,1576
2016-04-20T14:40:53.191Z,1576
2016-04-20T14:41:53.178Z,1572
2016-04-20T14:42:53.181Z,1568
2016-04-20T14:43:53.199Z,1568
2016-04-20T14:44:53.186Z,1564
2016-04-20T14:45:53.189Z,1560
2016-04-20T14:46:54.848Z,1556
2016-04-20T14:47:53.194Z,1552
2016-04-20T14:48:53.197Z,1556
2016-04-20T14:49:53.216Z,1556
2016-04-20T14:50:53.202Z,1560
2016-04-20T14:51:53.205Z,1556
2016-04-20T14:52:53.207Z,1552
2016-04-20T14:53:53.210Z,1552
2016-04-20T14:54:53.197Z,1548
2016-04-20T14:55:53.232Z,1548
2016-04-20T14:56:53.218Z,1548
2016-04-20T14:57:53.221Z,1544
2016-04-20T14:58:53.224Z,1544
2016-04-20T14:59:53.227Z,1536
2016-04-20T15:00:53.213Z,1532
2016-04-20T15:01:53.216Z,1532
2016-04-20T15:02:53.218Z,1524
2016-04-20T15:03:53.237Z,1520
2016-04-20T15:04:53.223Z,1520
2016-04-20T15:05:53.242Z,1512
2016-04-20T15:06:53.229Z,1512
2016-04-20T15:07:53.217Z,1512
2016-04-20T15:08:53.235Z,1512
2016-04-20T15:09:53.254Z,1512
2016-04-20T15:10:53.256Z,1508
2016-04-20T15:11:53.259Z,1512
2016-04-20T15:12:53.245Z,1508
2016-04-20T15:13:53.248Z,1504
2016-04-20T15:14:53.250Z,1504
2016-04-20T15:15:53.253Z,1504
2016-04-20T15:16:53.272Z,1500
2016-04-20T15:17:53.258Z,1500
2016-04-20T15:18:53.261Z,1492
2016-04-20T15:19:53.296Z,1492
2016-04-20T15:20:53.283Z,1488
2016-04-20T15:21:53.269Z,1488
2016-04-20T15:22:53.272Z,1488
2016-04-20T15:23:53.275Z,1488
2016-04-20T15:24:53.262Z,1488
2016-04-20T15:25:53.280Z,1484
2016-04-20T15:26:53.283Z,1484
2016-04-20T15:27:53.285Z,1476
2016-04-20T15:28:53.274Z,1472
2016-04-20T15:29:53.291Z,1468
2016-04-20T15:30:53.279Z,1464
2016-04-20T15:31:53.281Z,1464
2016-04-20T15:32:53.299Z,1460
2016-04-20T15:33:53.302Z,1456
2016-04-20T15:34:53.289Z,1456
2016-04-20T15:35:53.297Z,1456
2016-04-20T15:36:53.314Z,1452
2016-04-20T15:37:53.317Z,1448
2016-04-20T15:38:53.336Z,1440
2016-04-20T15:39:53.307Z,1440
2016-04-20T15:40:53.311Z,1440
2016-04-20T15:41:53.313Z,1436
2016-04-20T15:42:53.300Z,1436
2016-04-20T15:43:53.319Z,1436
2016-04-20T15:44:53.322Z,1432
2016-04-20T15:45:53.324Z,1428
2016-04-20T15:46:53.327Z,1424
2016-04-20T15:47:53.345Z,1424
2016-04-20T15:48:53.333Z,1424
2016-04-20T15:49:53.335Z,1420
2016-04-20T15:50:53.353Z,1420
2016-04-20T15:51:53.340Z,1416
2016-04-20T15:52:53.343Z,1416
2016-04-20T15:53:53.361Z,1412
2016-04-20T15:54:53.363Z,1404
2016-04-20T15:55:53.335Z,1404
2016-04-20T15:56:53.337Z,1400
2016-04-20T15:57:53.340Z,1400
2016-04-20T15:58:53.396Z,1396
2016-04-20T15:59:53.440Z,1396
2016-04-20T16:00:53.485Z,1392
2016-04-20T16:01:53.529Z,1392
2016-04-20T16:02:53.609Z,1392
2016-04-20T16:03:53.583Z,1388
2016-04-20T16:04:53.615Z,1388
2016-04-20T16:06:50.691Z,1384
2016-04-20T16:07:02.879Z,1384
2016-04-20T16:08:03.097Z,1380
2016-04-20T16:09:02.980Z,1372
2016-04-20T16:10:02.973Z,1368
2016-04-20T16:11:03.137Z,1364
2016-04-20T16:12:03.130Z,1360
2016-04-20T16:13:03.136Z,1360
2016-04-20T16:14:03.141Z,1356
2016-04-20T16:15:03.130Z,1352
2016-04-20T16:16:03.151Z,1348
2016-04-20T16:17:03.138Z,1348
2016-04-20T16:18:03.159Z,1344
2016-04-20T16:19:03.147Z,1340
2016-04-20T16:20:03.150Z,1336
2016-04-20T16:21:03.154Z,1332
2016-04-20T16:22:03.157Z,1328
2016-04-20T16:23:03.161Z,1320
2016-04-20T16:24:03.179Z,1320
2016-04-20T16:25:03.182Z,1316
2016-04-20T16:26:03.169Z,1312
2016-04-20T16:27:03.172Z,1308
2016-04-20T16:28:03.175Z,1308
2016-04-20T16:29:03.178Z,1300
2016-04-20T16:30:03.213Z,1296
2016-04-20T16:31:03.184Z,1292
2016-04-20T16:32:03.186Z,1292
2016-04-20T16:33:03.189Z,1284
2016-04-20T16:34:03.176Z,1280
2016-04-20T16:35:03.194Z,1280
2016-04-20T16:36:03.213Z,1272
2016-04-20T16:37:03.184Z,1272
2016-04-20T16:38:03.202Z,1264
2016-04-20T16:39:03.190Z,1264
2016-04-20T16:40:03.208Z,1260
2016-04-20T16:41:03.210Z,1256
2016-04-20T16:42:03.198Z,1252
2016-04-20T16:43:03.216Z,1248
2016-04-20T16:44:03.218Z,1240
2016-04-20T16:45:03.206Z,1236
2016-04-20T16:46:03.209Z,1236
2016-04-20T16:47:03.211Z,1228
2016-04-20T16:48:03.214Z,1228
2016-04-20T16:49:03.217Z,1220
2016-04-20T16:50:03.220Z,1216
2016-04-20T16:51:03.223Z,1212
2016-04-20T16:52:03.240Z,1212
2016-04-20T16:53:03.228Z,1204
2016-04-20T16:54:03.245Z,1200
2016-04-20T16:55:03.233Z,1196
2016-04-20T16:56:03.236Z,1192
2016-04-20T16:57:03.238Z,1188
2016-04-20T16:58:03.241Z,1184
2016-04-20T16:59:03.259Z,1176
2016-04-20T17:00:03.262Z,1172
2016-04-20T17:01:03.233Z,1164
2016-04-20T17:02:03.236Z,1160
2016-04-20T17:03:03.238Z,1148
2016-04-20T17:04:03.257Z,1144
2016-04-20T17:05:03.260Z,1132
2016-04-20T17:06:03.247Z,1124
2016-04-20T17:07:03.249Z,1120
2016-04-20T17:08:03.268Z,1108
2016-04-20T17:09:03.271Z,1104
2016-04-20T17:10:03.257Z,1092
2016-04-20T17:11:03.260Z,1084
2016-04-20T17:12:03.294Z,1076
2016-04-20T17:13:03.297Z,1068
2016-04-20T17:14:03.268Z,1056
2016-04-20T17:15:03.271Z,1052
2016-04-20T17:16:03.274Z,1040
2016-04-20T17:17:03.293Z,1032
2016-04-20T17:18:03.279Z,1024
2016-04-20T17:19:03.281Z,1012
2016-04-20T17:20:03.269Z,1004
2016-04-20T17:21:03.287Z,996
2016-04-20T17:22:03.275Z,984
2016-04-20T17:23:03.293Z,972
2016-04-20T17:24:03.295Z,964
2016-04-20T17:25:03.283Z,952
2016-04-20T17:26:03.286Z,940
2016-04-20T17:27:03.303Z,920
2016-04-20T17:28:03.321Z,896
2016-04-20T17:29:03.293Z,888
2016-04-20T17:30:03.297Z,884
2016-04-20T17:31:03.299Z,876
2016-04-20T17:32:03.301Z,856
2016-04-20T17:33:03.305Z,836
2016-04-20T17:34:03.307Z,816
2016-04-20T17:35:03.310Z,792
2016-04-20T17:36:03.344Z,776
2016-04-20T17:37:03.315Z,764
2016-04-20T17:38:03.302Z,752
2016-04-20T17:39:03.304Z,736
2016-04-20T17:40:03.151Z,716
2016-04-20T17:41:03.310Z,712
2016-04-20T17:42:03.313Z,704
2016-04-20T17:43:03.316Z,700
2016-04-20T17:44:03.318Z,692
2016-04-20T17:45:03.321Z,680
2016-04-20T17:46:03.308Z,660
2016-04-20T17:47:03.326Z,640
2016-04-20T17:48:03.329Z,620
2016-04-20T17:49:03.222Z,600
2016-04-20T17:50:03.319Z,584
2016-04-20T17:51:03.337Z,564
2016-04-20T17:52:03.215Z,544
2016-04-20T17:53:03.342Z,524
2016-04-20T17:54:10.038Z,496
2016-04-20T17:55:03.338Z,472
2016-04-20T17:56:03.325Z,448
2016-04-20T17:57:03.328Z,424
2016-04-20T17:58:03.346Z,400
2016-04-20T17:59:03.333Z,376
2016-04-20T18:00:03.179Z,356
2016-04-20T18:01:03.338Z,340
2016-04-20T18:02:03.341Z,328
2016-04-20T18:03:03.344Z,312
2016-04-20T18:04:03.361Z,292
2016-04-20T18:05:03.350Z,276
2016-04-20T18:06:03.367Z,260
2016-04-20T18:07:03.181Z,244
2016-04-20T18:08:03.355Z,224
2016-04-20T18:09:03.343Z,208
2016-04-20T18:10:03.361Z,192
2016-04-20T18:11:03.347Z,180
2016-04-20T18:12:03.351Z,168
2016-04-20T18:13:03.369Z,156
2016-04-20T18:14:03.355Z,140
2016-04-20T18:15:03.202Z,132
2016-04-20T18:16:03.236Z,120
2016-04-20T18:17:03.227Z,108
2016-04-20T18:18:03.387Z,92
2016-04-20T18:19:03.373Z,84
2016-04-20T18:20:03.219Z,76
2016-04-20T18:21:03.395Z,68
2016-04-20T18:22:03.417Z,60
2016-04-20T18:23:03.373Z,52
2016-04-20T18:24:03.376Z,48
2016-04-20T18:25:03.363Z,40
2016-04-20T18:26:03.380Z,36
2016-04-20T18:27:03.384Z,32
2016-04-20T18:28:03.371Z,28
2016-04-20T18:29:03.374Z,24
2016-04-20T18:30:03.377Z,20
2016-04-20T18:31:03.379Z,16
2016-04-20T18:32:03.366Z,16
2016-04-20T18:33:03.385Z,12
2016-04-20T18:34:03.387Z,12
2016-04-20T18:35:03.390Z,8
2016-04-20T18:36:03.393Z,8
2016-04-20T18:37:03.239Z,4
2016-04-20T18:38:03.382Z,8
2016-04-20T18:39:03.385Z,4
2016-04-20T18:40:03.388Z,4
2016-04-20T18:41:03.391Z,4
2016-04-20T18:42:03.393Z,4
2016-04-20T18:43:03.396Z,4
2016-04-20T18:44:03.414Z,0
2016-04-20T18:45:03.385Z,0
2016-04-20T18:46:03.387Z,0
2016-04-20T18:47:03.423Z,0
2016-04-20T18:48:03.393Z,0
2016-04-20T18:49:03.521Z,0
2016-04-20T18:50:03.430Z,0
2016-04-20T18:51:03.401Z,0
2016-04-20T18:52:03.419Z,0
2016-04-20T18:53:03.407Z,0
2016-04-20T18:54:03.394Z,0
2016-04-20T18:55:03.397Z,0
2016-04-20T18:56:03.415Z,0
2016-04-20T18:57:03.402Z,0
2016-04-20T18:58:03.405Z,0
2016-04-20T18:59:03.408Z,0
2016-04-20T19:00:03.425Z,0
2016-04-20T19:01:03.414Z,0
2016-04-20T19:02:03.416Z,0
2016-04-20T19:03:03.402Z,0
2016-04-20T19:04:03.421Z,0
2016-04-20T19:05:03.408Z,0
2016-04-20T19:06:03.411Z,0
2016-04-20T19:07:03.461Z,0
2016-04-20T19:08:03.431Z,0
2016-04-20T19:09:03.418Z,0
2016-04-20T19:10:03.405Z,0
2016-04-20T19:11:03.424Z,0
2016-04-20T19:12:03.426Z,0
2016-04-20T19:13:03.414Z,0
2016-04-20T19:14:03.416Z,0
2016-04-20T19:15:03.419Z,0
2016-04-20T19:16:03.422Z,0
2016-04-20T19:17:03.424Z,0
2016-04-20T19:18:03.426Z,0
2016-04-20T19:19:03.414Z,0
2016-04-20T19:20:03.417Z,0
2016-04-20T19:21:03.420Z,0
2016-04-20T19:22:03.407Z,0
2016-04-20T19:23:03.425Z,0
2016-04-20T19:24:03.428Z,0
2016-04-20T19:25:03.414Z,0
2016-04-20T19:26:03.417Z,0
2016-04-20T19:27:02.701Z,0
2016-04-20T19:28:03.423Z,0
2016-04-20T19:29:03.441Z,0
2016-04-20T19:30:03.428Z,0
2016-04-20T19:31:03.431Z,0
2016-04-20T19:32:03.433Z,0
2016-04-20T19:33:03.422Z,0
2016-04-20T19:34:03.439Z,0
2016-04-20T19:35:03.441Z,0
2016-04-20T19:36:03.444Z,0
2016-04-20T19:37:03.432Z,0
2016-04-20T19:38:02.699Z,0
2016-04-20T19:39:03.422Z,0
2016-04-20T19:40:03.455Z,0
2016-04-20T19:41:03.443Z,0
2016-04-20T19:42:03.446Z,0
2016-04-20T19:43:03.276Z,0
2016-04-20T19:44:03.435Z,0
2016-04-20T19:45:03.437Z,0
2016-04-20T19:46:03.440Z,0
2016-04-20T19:47:03.443Z,0
2016-04-20T19:48:03.446Z,0
2016-04-20T19:49:03.464Z,0
2016-04-20T19:50:03.451Z,0
2016-04-20T19:51:03.454Z,0
2016-04-20T19:52:03.456Z,0
2016-04-20T19:53:03.443Z,0
2016-04-20T19:54:03.445Z,0
2016-04-20T19:55:03.448Z,0
2016-04-20T19:56:03.467Z,0
2016-04-20T19:57:03.454Z,0
2016-04-20T19:58:03.472Z,0
2016-04-20T19:59:03.459Z,0
2016-04-20T20:00:03.478Z,0
2016-04-20T20:01:03.450Z,0
2016-04-20T20:02:03.467Z,0
2016-04-20T20:03:03.455Z,0
2016-04-20T20:04:03.441Z,0
2016-04-20T20:05:03.445Z,0
2016-04-20T20:06:03.447Z,0
2016-04-20T20:07:03.466Z,0
2016-04-20T20:08:03.468Z,0
2016-04-20T20:09:03.471Z,0
2016-04-20T20:10:03.473Z,0
2016-04-20T20:11:03.460Z,0
2016-04-20T20:12:03.464Z,0
2016-04-20T20:13:03.465Z,0
2016-04-20T20:14:03.468Z,0
2016-04-20T20:15:03.455Z,0
2016-04-20T20:16:03.474Z,0
2016-04-20T20:17:03.477Z,0
2016-04-20T20:18:03.479Z,0
2016-04-20T20:19:03.466Z,0
2016-04-20T20:20:03.485Z,0
2016-04-20T20:21:03.471Z,0
2016-04-20T20:22:03.500Z,0
2016-04-20T20:23:03.339Z,0
2016-04-20T20:24:03.514Z,0
2016-04-20T20:25:03.469Z,0
2016-04-20T20:26:03.472Z,0
2016-04-20T20:27:03.458Z,0
2016-04-20T20:28:03.462Z,0
2016-04-20T20:29:03.495Z,0
2016-04-20T20:30:03.466Z,0
2016-04-20T20:31:03.470Z,0
2016-04-20T20:32:03.472Z,0
2016-04-20T20:33:03.475Z,0
2016-04-20T20:34:03.462Z,0
2016-04-20T20:35:03.465Z,0
2016-04-20T20:36:03.483Z,0
2016-04-20T20:37:03.485Z,0
2016-04-20T20:38:03.474Z,0
2016-04-20T20:39:02.741Z,0
2016-04-20T20:40:03.478Z,0
2016-04-20T20:41:03.481Z,0
2016-04-20T20:42:03.484Z,0
2016-04-20T20:43:03.470Z,0
2016-04-20T20:44:03.457Z,0
2016-04-20T20:45:03.492Z,0
2016-04-20T20:46:03.478Z,0
2016-04-20T20:47:03.482Z,0
2016-04-20T20:48:03.484Z,0
2016-04-20T20:49:03.470Z,0
2016-04-20T20:50:03.490Z,0
2016-04-20T20:51:03.492Z,0
2016-04-20T20:52:03.478Z,0
2016-04-20T20:53:03.481Z,0
2016-04-20T20:54:03.485Z,0
2016-04-20T20:55:03.487Z,0
2016-04-20T20:56:03.475Z,0
2016-04-20T20:57:03.508Z,0
2016-04-20T20:58:03.495Z,0
2016-04-20T20:59:03.513Z,0
2016-04-20T21:00:08.033Z,0
2016-04-20T21:01:03.331Z,0
2016-04-20T21:02:03.492Z,0
2016-04-20T21:03:03.494Z,0
2016-04-20T21:04:03.498Z,0
2016-04-20T21:05:03.500Z,0
2016-04-20T21:06:03.503Z,0
2016-04-20T21:07:03.489Z,0
2016-04-20T21:08:03.492Z,0
2016-04-20T21:09:03.478Z,0
2016-04-20T21:10:03.497Z,0
2016-04-20T21:11:03.501Z,0
2016-04-20T21:12:03.518Z,0
2016-04-20T21:13:03.505Z,0
2016-04-20T21:14:03.492Z,0
2016-04-20T21:15:03.480Z,0
2016-04-20T21:16:03.483Z,0
2016-04-20T21:17:03.500Z,0
2016-04-20T21:18:03.488Z,0
2016-04-20T21:19:03.491Z,0
2016-04-20T21:20:03.493Z,0
2016-04-20T21:21:03.355Z,0
2016-04-20T21:22:03.498Z,0
2016-04-20T21:23:03.501Z,0
2016-04-20T21:24:03.519Z,0
2016-04-20T21:25:03.491Z,0
2016-04-20T21:26:03.509Z,0
2016-04-20T21:27:03.496Z,0
2016-04-20T21:28:03.499Z,0
2016-04-20T21:29:03.502Z,0
2016-04-20T21:30:03.504Z,0
2016-04-20T21:31:03.507Z,0
2016-04-20T21:32:03.494Z,0
2016-04-20T21:33:03.512Z,0
2016-04-20T21:34:03.499Z,0
2016-04-20T21:35:03.487Z,0
2016-04-20T21:36:03.504Z,0
2016-04-20T21:37:03.507Z,0
2016-04-20T21:38:03.495Z,0
2016-04-20T21:39:03.513Z,0
2016-04-20T21:40:03.516Z,0
2016-04-20T21:41:03.503Z,0
2016-04-20T21:42:03.505Z,0
2016-04-20T21:43:03.508Z,0
2016-04-20T21:44:03.526Z,0
2016-04-20T21:45:03.514Z,0
2016-04-20T21:46:03.516Z,0
2016-04-20T21:47:03.503Z,0
2016-04-20T21:48:03.490Z,0
2016-04-20T21:49:03.508Z,0
2016-04-20T21:50:03.574Z,0
2016-04-20T21:51:03.530Z,0
2016-04-20T21:52:03.517Z,0
2016-04-20T21:53:03.504Z,0
2016-04-20T21:54:03.507Z,0
2016-04-20T21:55:03.510Z,0
2016-04-20T21:56:03.512Z,0
2016-04-20T21:57:03.515Z,0
2016-04-20T21:58:03.517Z,0
2016-04-20T21:59:03.504Z,0
2016-04-20T22:00:03.507Z,0
2016-04-20T22:01:03.525Z,0
2016-04-20T22:02:03.513Z,0
2016-04-20T22:03:03.514Z,0
2016-04-20T22:04:03.534Z,0
2016-04-20T22:05:03.521Z,0
2016-04-20T22:06:03.523Z,0
2016-04-20T22:07:03.526Z,0
2016-04-20T22:08:03.512Z,0
2016-04-20T22:09:03.531Z,0
2016-04-20T22:10:03.518Z,0